Strona główna
METAR-TAF:

METAR-TAF

Lotnisko :

Port lotniczy Burgas

Burgas, Bułgaria

Szerokość geograficzna: 42-29N, Długość geograficzna: 027-29E, wysokość: 16 m

Aktualna obserwacja pogody

Raport powstał 12 minut temu, godzina 22:30 UTC
Wiatr 3 kt od zachodnio-północny zachód
Temperatura 19°C
Wilgotność 73%
Ciśnienie 1015 hPa
Widzialność 10 km lub więcej
Brak chmur poniżej 1500 m i brak chmur cumulonimbus

METAR: LBBG 172230Z 29003KT CAVOK 19/14 Q1015 NOSIG

czas: 01:42 (22:42 UTC)

Prognoza

Raport powstał 5 godziny i 42 minut temu, godzina 17:00 UTC
Prognoza ważna od 17 godzina 18 UTC do 18 godzina 18 UTC
Wiatr 4 kt z kierunków zmiennych
Widzialność 10 km lub więcej
Brak chmur poniżej 1500 m i brak chmur cumulonimbus
Stopniowe zmiany
od 18 godzina 08 UTC do 18 godzina 10 UTC
Wiatr 12 kt od wschodnio-południowy wschód

TAF: LBBG 171700Z 1718/1818 VRB04KT CAVOK BECMG 1808/1810 12012KT

Obserwacja i prognoza pogody dla ponad 4000 lotnisk (raport METAR i TAF).

Dostępne stacje oznaczono żółtymi i czerwonymi punktami na mapie.

Najedź kursorem aby zobaczyć nazwę stacji.

Kliknij aby zobaczyć obserwacje i prognozy pogody.

Aby zmienić mapę: kliknij na zielony przycisk z czarnym krzyżykiem, aby powiększyć; na zielony przycisk z myślnikiem, aby pomniejszyć; na zielone strzałki, aby przejść do map sąsiednich.


METAR-TAF: